Time;durP1;ratioP1;P1;durP2;ratioP2;P2;SDS_P1;SDS_P2;PMS_P1;PMS_P2;Temp;Humidity;BMP_temperature;BMP_pressure;BME280_temperature;BME280_humidity;BME280_pressure;Samples;Min_cycle;Max_cycle;Signal;HPM_P1;HPM_P2
2021/08/21 00:02:04;;;;;;;9.35;2.55;;;;;;;26.53;54.95;100750.81;4971963;28;20047;-72
2021/08/21 00:04:32;;;;;;;14.43;3.88;;;;;;;26.56;54.65;100745.25;4969836;28;20483;-72
2021/08/21 00:07:00;;;;;;;6.72;2.85;;;;;;;26.50;54.51;100750.97;4970812;28;20046;-71
2021/08/21 00:09:28;;;;;;;8.10;2.17;;;;;;;26.55;54.31;100754.34;4970443;28;20042;-71
2021/08/21 00:11:55;;;;;;;8.73;2.50;;;;;;;26.56;53.57;100754.25;4971326;28;20043;-72
2021/08/21 00:14:22;;;;;;;10.73;3.42;;;;;;;26.57;52.96;100747.91;4970827;28;20058;-72
2021/08/21 00:16:49;;;;;;;7.38;2.40;;;;;;;26.55;52.90;100749.78;4971310;28;20038;-73
2021/08/21 00:19:17;;;;;;;5.47;2.50;;;;;;;26.52;53.00;100743.63;4970181;28;20047;-72
2021/08/21 00:21:48;;;;;;;8.02;2.65;;;;;;;26.56;52.63;100751.56;4972848;28;20394;-71
2021/08/21 00:24:15;;;;;;;8.18;2.10;;;;;;;26.51;53.21;100747.31;4974652;28;20035;-73
2021/08/21 00:26:43;;;;;;;9.20;2.70;;;;;;;26.48;52.61;100736.63;4973663;28;20053;-72
2021/08/21 00:29:10;;;;;;;8.60;2.55;;;;;;;26.45;52.78;100736.81;4974579;28;20050;-72
2021/08/21 00:31:37;;;;;;;9.38;2.40;;;;;;;26.48;52.50;100742.06;4974939;28;20039;-72
2021/08/21 00:34:05;;;;;;;8.38;2.70;;;;;;;26.47;52.70;100737.59;4974172;28;20085;-72
2021/08/21 00:36:32;;;;;;;9.18;2.80;;;;;;;26.48;52.38;100737.50;4974178;28;20630;-71
2021/08/21 00:39:01;;;;;;;6.15;2.30;;;;;;;26.46;52.93;100738.53;4972963;28;20538;-72
2021/08/21 00:41:29;;;;;;;8.27;2.50;;;;;;;26.45;52.62;100739.50;4975589;28;20039;-72
2021/08/21 00:43:56;;;;;;;10.75;2.85;;;;;;;26.43;52.52;100742.28;4974532;28;20046;-73
2021/08/21 00:46:23;;;;;;;7.88;2.20;;;;;;;26.25;53.17;100739.63;4973979;28;20050;-73
2021/08/21 00:48:51;;;;;;;11.77;2.40;;;;;;;26.24;52.88;100737.84;4972895;28;20106;-72
2021/08/21 00:51:19;;;;;;;6.47;2.00;;;;;;;26.28;52.56;100739.47;4971992;28;20050;-72
2021/08/21 00:53:46;;;;;;;8.35;2.53;;;;;;;26.27;52.70;100735.88;4973976;28;20047;-72
2021/08/21 00:56:15;;;;;;;11.48;2.67;;;;;;;26.30;52.98;100732.16;4975120;28;20065;-73
2021/08/21 00:58:43;;;;;;;12.25;3.03;;;;;;;26.23;53.00;100736.97;4972791;28;20047;-73
2021/08/21 01:01:11;;;;;;;8.55;2.80;;;;;;;26.23;53.45;100730.66;4973959;28;20093;-73
2021/08/21 01:03:38;;;;;;;8.07;2.88;;;;;;;26.26;53.54;100730.53;4973387;28;20035;-72
2021/08/21 01:06:06;;;;;;;7.53;2.35;;;;;;;26.26;53.15;100719.69;4973419;28;20062;-72
2021/08/21 01:08:33;;;;;;;7.82;2.70;;;;;;;26.23;53.37;100726.13;4973481;28;20050;-73
2021/08/21 01:11:01;;;;;;;7.82;2.75;;;;;;;26.21;53.08;100730.72;4973686;28;20038;-72
2021/08/21 01:13:29;;;;;;;8.98;2.30;;;;;;;26.12;52.90;100725.78;4973872;28;20051;-70
2021/08/21 01:15:57;;;;;;;6.40;2.85;;;;;;;26.09;52.87;100723.22;4974924;28;20398;-73
2021/08/21 01:18:25;;;;;;;4.90;1.95;;;;;;;26.07;52.82;100715.19;4974124;28;20051;-72
2021/08/21 01:20:52;;;;;;;5.65;2.22;;;;;;;26.06;52.70;100718.81;4972938;28;20050;-73
2021/08/21 01:23:20;;;;;;;8.35;2.95;;;;;;;26.05;52.28;100711.69;4973884;28;20039;-72
2021/08/21 01:25:47;;;;;;;7.63;2.72;;;;;;;26.01;52.46;100711.91;4957466;28;20031;-73
2021/08/21 01:28:16;;;;;;;9.32;2.40;;;;;;;26.01;52.60;100720.88;4973725;28;20058;-73
2021/08/21 01:30:43;;;;;;;6.80;2.63;;;;;;;25.97;52.55;100713.00;4974073;28;20043;-72
2021/08/21 01:33:11;;;;;;;7.55;2.65;;;;;;;25.94;52.67;100708.59;4972838;28;20121;-72
2021/08/21 01:35:39;;;;;;;8.38;2.90;;;;;;;25.92;52.62;100715.94;4973299;28;20403;-72
2021/08/21 01:38:06;;;;;;;7.65;2.22;;;;;;;25.90;52.09;100708.84;4974246;28;20586;-72
2021/08/21 01:40:34;;;;;;;7.18;2.25;;;;;;;25.85;52.50;100708.19;4973989;28;20050;-71
2021/08/21 01:43:01;;;;;;;12.27;3.53;;;;;;;25.84;52.42;100696.50;4966736;28;20043;-72
2021/08/21 01:45:30;;;;;;;10.43;2.63;;;;;;;25.82;52.41;100700.22;4963433;28;20054;-70
2021/08/21 01:47:57;;;;;;;6.82;2.40;;;;;;;25.67;52.50;100705.41;4974132;28;20036;-73
2021/08/21 01:50:25;;;;;;;5.50;2.08;;;;;;;25.68;52.47;100706.28;4974109;28;20448;-72
2021/08/21 01:52:52;;;;;;;6.38;2.60;;;;;;;25.59;52.20;100693.22;4974065;28;20074;-73
2021/08/21 01:55:21;;;;;;;9.27;2.92;;;;;;;25.62;52.28;100696.63;4973955;28;20388;-73
2021/08/21 01:57:49;;;;;;;8.00;2.80;;;;;;;25.67;51.85;100691.88;4972576;28;20047;-73
2021/08/21 02:00:17;;;;;;;6.70;3.10;;;;;;;25.73;51.78;100698.84;4973801;28;20049;-72
2021/08/21 02:02:46;;;;;;;6.72;2.80;;;;;;;25.72;51.33;100697.09;4973924;28;20402;-73
2021/08/21 02:05:13;;;;;;;8.48;2.70;;;;;;;25.69;51.36;100689.13;4973270;28;20055;-72
2021/08/21 02:07:41;;;;;;;6.30;2.80;;;;;;;25.67;51.35;100691.00;4973581;28;20039;-72
2021/08/21 02:10:09;;;;;;;8.70;2.38;;;;;;;25.71;51.35;100688.09;4971889;28;20495;-72
2021/08/21 02:12:36;;;;;;;7.10;2.22;;;;;;;25.67;51.60;100688.28;4973419;28;20038;-72
2021/08/21 02:15:06;;;;;;;5.82;2.55;;;;;;;25.66;51.58;100681.16;4973340;28;20395;-72
2021/08/21 02:17:33;;;;;;;9.75;2.55;;;;;;;25.64;51.74;100686.63;4973113;28;20054;-72
2021/08/21 02:20:02;;;;;;;9.77;2.63;;;;;;;25.66;51.82;100682.03;4972999;28;20039;-72
2021/08/21 02:22:30;;;;;;;8.50;3.35;;;;;;;25.61;51.97;100681.34;4972185;28;20043;-72
2021/08/21 02:24:58;;;;;;;7.10;2.90;;;;;;;25.59;52.04;100677.00;4973283;28;20039;-72
2021/08/21 02:27:26;;;;;;;6.95;2.58;;;;;;;25.58;52.03;100686.06;4973219;28;20046;-73
2021/08/21 02:29:53;;;;;;;7.97;2.42;;;;;;;25.54;52.59;100682.56;4971916;28;20050;-72
2021/08/21 02:32:21;;;;;;;7.38;3.25;;;;;;;25.50;53.04;100689.06;4972212;28;20479;-72
2021/08/21 02:34:48;;;;;;;14.63;3.22;;;;;;;25.56;53.04;100691.50;4971562;28;20062;-72
2021/08/21 02:37:19;;;;;;;6.50;2.50;;;;;;;25.62;53.06;100684.94;4972408;28;20042;-73
2021/08/21 02:39:47;;;;;;;8.93;2.60;;;;;;;25.61;53.26;100680.47;4973016;28;20039;-72
2021/08/21 02:42:15;;;;;;;6.55;2.63;;;;;;;25.61;53.46;100689.47;4973021;28;20517;-72
2021/08/21 02:44:44;;;;;;;6.88;2.88;;;;;;;25.60;53.25;100689.56;4970916;28;20053;-72
2021/08/21 02:47:11;;;;;;;8.70;2.42;;;;;;;25.65;53.79;100693.81;4971147;28;20050;-71
2021/08/21 02:49:38;;;;;;;8.80;2.90;;;;;;;25.70;53.71;100693.56;4972276;28;20566;-72
2021/08/21 02:52:06;;;;;;;4.88;2.58;;;;;;;25.67;53.54;100688.28;4972519;28;20495;-72
2021/08/21 02:54:35;;;;;;;7.63;3.03;;;;;;;25.59;53.87;100695.94;4964632;28;20046;-71
2021/08/21 02:57:02;;;;;;;4.95;2.53;;;;;;;25.64;54.17;100688.47;4974973;28;20047;-72
2021/08/21 02:59:29;;;;;;;8.15;2.60;;;;;;;25.64;53.92;100696.56;4971905;28;20399;-71
2021/08/21 03:01:57;;;;;;;5.00;2.70;;;;;;;25.62;53.98;100693.06;4973502;28;20506;-72
2021/08/21 03:04:24;;;;;;;11.35;2.83;;;;;;;25.54;54.30;100696.09;4972743;28;20043;-72
2021/08/21 03:06:52;;;;;;;8.05;2.78;;;;;;;25.49;55.05;100691.84;4971794;28;20043;-72
2021/08/21 03:09:19;;;;;;;6.45;3.13;;;;;;;25.54;55.54;100692.50;4971801;28;20046;-73
2021/08/21 03:11:48;;;;;;;13.00;3.10;;;;;;;25.58;55.59;100689.63;4971351;28;20039;-72
2021/08/21 03:14:15;;;;;;;8.18;2.95;;;;;;;25.57;56.00;100692.38;4971227;28;20047;-72
2021/08/21 03:16:42;;;;;;;8.05;3.40;;;;;;;25.58;55.74;100689.63;4971325;28;20050;-72
2021/08/21 03:19:09;;;;;;;8.48;3.75;;;;;;;25.59;56.29;100698.63;4971946;28;20055;-72
2021/08/21 03:21:37;;;;;;;11.45;3.40;;;;;;;25.56;56.45;100694.19;4971367;28;20050;-72
2021/08/21 03:24:07;;;;;;;7.15;3.35;;;;;;;25.55;56.49;100696.97;4954801;28;20526;-71
2021/08/21 03:26:34;;;;;;;5.85;3.20;;;;;;;25.54;56.58;100698.78;4971906;28;20061;-72
2021/08/21 03:29:03;;;;;;;8.90;3.65;;;;;;;25.57;56.51;100709.50;4971244;28;20515;-72
2021/08/21 03:31:30;;;;;;;8.18;4.50;;;;;;;25.56;56.81;100712.25;4972389;28;20411;-72
2021/08/21 03:33:58;;;;;;;7.35;3.40;;;;;;;25.58;56.69;100707.69;4971302;28;20077;-72
2021/08/21 03:36:26;;;;;;;9.32;3.50;;;;;;;25.55;56.77;100715.88;4971839;28;20101;-72
2021/08/21 03:38:53;;;;;;;10.73;4.47;;;;;;;25.54;56.97;100711.44;4971946;28;20491;-72
2021/08/21 03:41:21;;;;;;;8.10;3.53;;;;;;;25.52;56.98;100710.66;4971563;28;20487;-72
2021/08/21 03:43:48;;;;;;;11.38;3.55;;;;;;;25.55;56.71;100710.47;4971784;28;20043;-72
2021/08/21 03:46:17;;;;;;;9.98;3.53;;;;;;;25.55;56.52;100721.28;4970634;28;20438;-72
2021/08/21 03:48:44;;;;;;;13.77;3.38;;;;;;;25.54;56.83;100717.72;4971397;28;20054;-72
2021/08/21 03:51:11;;;;;;;10.52;2.67;;;;;;;25.57;56.46;100719.41;4971773;28;20419;-72
2021/08/21 03:53:39;;;;;;;10.02;2.83;;;;;;;25.65;56.44;100722.66;4971825;28;20047;-72
2021/08/21 03:56:06;;;;;;;8.35;3.22;;;;;;;25.69;56.09;100718.84;4970794;28;20039;-72
2021/08/21 03:58:34;;;;;;;12.38;3.13;;;;;;;25.76;56.00;100713.09;4971454;28;20039;-72
2021/08/21 04:01:01;;;;;;;8.07;2.35;;;;;;;25.89;55.52;100723.31;4970278;28;20442;-71
2021/08/21 04:03:30;;;;;;;8.88;2.28;;;;;;;26.00;55.54;100711.00;4970675;28;20049;-72
2021/08/21 04:05:57;;;;;;;6.95;2.85;;;;;;;26.11;55.58;100708.69;4971595;28;20054;-72
2021/08/21 04:08:24;;;;;;;8.45;2.92;;;;;;;26.23;54.84;100717.13;4971257;28;20050;-73
2021/08/21 04:10:52;;;;;;;5.35;2.35;;;;;;;26.33;54.62;100718.44;4971081;28;20391;-72
2021/08/21 04:13:19;;;;;;;10.43;2.60;;;;;;;26.39;55.09;100704.59;4969483;28;20062;-72
2021/08/21 04:15:46;;;;;;;6.70;2.13;;;;;;;26.34;54.50;100718.38;4970097;28;20043;-72
2021/08/21 04:18:14;;;;;;;5.65;1.90;;;;;;;26.32;54.73;100720.28;4970209;28;20046;-72
2021/08/21 04:20:43;;;;;;;7.88;2.75;;;;;;;26.35;54.94;100712.00;4969364;28;20455;-72
2021/08/21 04:23:10;;;;;;;8.05;2.88;;;;;;;26.47;54.85;100716.81;4970860;28;20462;-72
2021/08/21 04:25:37;;;;;;;7.18;2.30;;;;;;;26.66;54.60;100708.59;4970531;28;20058;-72
2021/08/21 04:28:06;;;;;;;5.32;2.10;;;;;;;26.86;54.15;100713.84;4970770;28;20043;-71
2021/08/21 04:30:33;;;;;;;5.85;2.28;;;;;;;27.05;53.67;100715.63;4971045;28;20039;-72
2021/08/21 04:33:00;;;;;;;8.77;2.58;;;;;;;27.16;53.59;100711.41;4967514;28;20050;-72
2021/08/21 04:35:28;;;;;;;6.55;2.13;;;;;;;27.17;53.43;100706.88;4971716;28;20051;-72
2021/08/21 04:37:57;;;;;;;11.07;2.67;;;;;;;27.12;53.88;100711.63;4971733;28;20042;-72
2021/08/21 04:40:25;;;;;;;7.85;2.75;;;;;;;27.18;54.22;100719.44;4971314;28;20043;-72
2021/08/21 04:42:52;;;;;;;9.48;2.63;;;;;;;27.41;53.22;100719.06;4970399;28;20053;-72
2021/08/21 04:45:19;;;;;;;7.80;2.58;;;;;;;27.58;53.37;100715.44;4963754;28;20545;-72
2021/08/21 04:47:47;;;;;;;9.93;2.63;;;;;;;27.72;52.52;100724.59;4968884;28;20045;-72
2021/08/21 04:50:14;;;;;;;7.20;2.42;;;;;;;27.88;53.01;100721.00;4970170;28;20046;-72
2021/08/21 04:52:41;;;;;;;7.30;2.47;;;;;;;28.11;52.76;100723.28;4970745;28;20125;-69
2021/08/21 04:55:11;;;;;;;5.82;2.13;;;;;;;28.34;51.87;100724.69;4968651;28;20049;-70
2021/08/21 04:57:39;;;;;;;4.78;1.90;;;;;;;28.49;51.22;100721.06;4970051;28;20434;-69
2021/08/21 05:00:08;;;;;;;5.45;2.15;;;;;;;28.62;50.10;100723.94;4986473;28;20050;-69
2021/08/21 05:02:35;;;;;;;7.38;1.88;;;;;;;28.77;50.31;100726.63;4970430;28;20055;-69
2021/08/21 05:05:03;;;;;;;4.68;1.95;;;;;;;28.93;49.98;100726.59;4968680;28;20035;-69
2021/08/21 05:07:30;;;;;;;4.40;1.92;;;;;;;29.08;49.38;100730.22;4970183;28;20650;-69
2021/08/21 05:09:57;;;;;;;6.90;2.03;;;;;;;29.23;48.82;100726.53;4973268;28;20043;-70
2021/08/21 05:12:26;;;;;;;5.15;2.17;;;;;;;29.46;48.67;100730.56;4974676;28;20050;-69
2021/08/21 05:14:53;;;;;;;6.85;2.00;;;;;;;29.63;48.50;100728.50;4973833;28;20054;-70
2021/08/21 05:17:21;;;;;;;7.47;2.17;;;;;;;29.71;47.35;100726.19;4972663;28;20046;-69
2021/08/21 05:19:50;;;;;;;4.45;2.17;;;;;;;29.85;46.46;100719.84;4973337;28;21317;-70
2021/08/21 05:22:26;;;;;;;5.78;1.60;;;;;;;29.88;45.76;100725.06;4973475;28;20057;-69
2021/08/21 05:24:54;;;;;;;7.50;2.10;;;;;;;30.03;44.84;100726.84;4973507;28;20042;-69
2021/08/21 05:27:23;;;;;;;7.80;1.85;;;;;;;30.24;44.05;100723.66;4968041;28;20047;-70
2021/08/21 05:29:52;;;;;;;4.63;2.15;;;;;;;30.43;42.84;100726.91;4969688;28;20042;-70
2021/08/21 05:32:20;;;;;;;4.80;1.48;;;;;;;30.61;42.48;100722.09;4972159;28;20050;-70
2021/08/21 05:34:47;;;;;;;6.68;1.90;;;;;;;30.73;41.74;100727.56;4970462;28;20031;-72
2021/08/21 05:37:14;;;;;;;7.50;2.25;;;;;;;30.84;41.47;100726.84;4969344;28;20050;-72
2021/08/21 05:39:42;;;;;;;7.53;2.20;;;;;;;31.02;40.92;100724.69;4968718;28;20031;-70
2021/08/21 05:42:09;;;;;;;6.75;2.05;;;;;;;31.17;40.50;100729.97;4971032;28;20499;-70
2021/08/21 05:44:36;;;;;;;6.32;2.10;;;;;;;31.31;40.20;100728.97;4973335;28;20035;-71
2021/08/21 05:47:06;;;;;;;4.88;2.00;;;;;;;31.56;40.25;100723.50;4972558;28;20047;-69
2021/08/21 05:49:33;;;;;;;5.00;1.90;;;;;;;31.69;40.19;100733.56;4973421;28;20083;-70
2021/08/21 05:52:00;;;;;;;6.50;2.17;;;;;;;31.89;40.09;100733.00;4973918;28;20050;-69
2021/08/21 05:54:28;;;;;;;7.28;1.70;;;;;;;32.13;39.62;100739.34;4972791;28;20533;-70
2021/08/21 05:56:55;;;;;;;7.45;2.10;;;;;;;32.25;39.14;100738.47;4972710;28;20051;-70
2021/08/21 05:59:22;;;;;;;7.03;1.95;;;;;;;32.27;38.89;100741.97;4975424;28;20499;-72
2021/08/21 06:01:50;;;;;;;8.65;2.20;;;;;;;32.43;38.87;100748.00;4973218;28;20078;-71
2021/08/21 06:04:19;;;;;;;9.68;1.92;;;;;;;32.66;38.68;100734.44;4971623;28;20495;-71
2021/08/21 06:06:46;;;;;;;7.00;1.90;;;;;;;32.78;38.53;100736.28;4973755;28;20046;-70
2021/08/21 06:09:17;;;;;;;8.30;2.28;;;;;;;32.89;38.30;100738.16;4972082;28;20045;-71
2021/08/21 06:11:45;;;;;;;4.35;2.00;;;;;;;33.14;37.94;100743.47;4973594;28;20534;-71
2021/08/21 06:14:12;;;;;;;7.28;1.95;;;;;;;33.22;37.56;100741.03;4973038;28;20051;-70
2021/08/21 06:16:39;;;;;;;11.07;2.92;;;;;;;33.20;37.31;100740.28;4972917;28;20047;-71
2021/08/21 06:19:07;;;;;;;6.93;2.00;;;;;;;33.23;37.38;100737.28;4972174;28;21027;-71
2021/08/21 06:21:36;;;;;;;7.35;1.85;;;;;;;33.40;37.30;100730.50;4972468;28;20447;-72
2021/08/21 06:24:03;;;;;;;11.63;1.75;;;;;;;33.57;37.23;100735.47;4973121;28;20046;-71
2021/08/21 06:26:31;;;;;;;6.55;1.90;;;;;;;33.76;37.58;100741.22;4983200;28;20054;-72
2021/08/21 06:28:58;;;;;;;4.93;1.77;;;;;;;33.86;37.78;100739.50;4984808;28;20050;-71
2021/08/21 06:31:25;;;;;;;6.55;1.83;;;;;;;33.90;37.40;100738.22;4983311;28;20054;-71
2021/08/21 06:33:53;;;;;;;9.25;2.05;;;;;;;34.07;37.69;100738.72;4971885;28;20049;-71
2021/08/21 06:36:20;;;;;;;7.13;2.35;;;;;;;34.20;37.27;100739.44;4973266;28;20055;-71
2021/08/21 06:38:49;;;;;;;4.93;1.85;;;;;;;34.17;37.59;100736.94;4953356;28;20030;-71
2021/08/21 06:41:17;;;;;;;6.93;2.17;;;;;;;34.23;37.62;100739.19;4964731;28;20102;-70
2021/08/21 06:43:44;;;;;;;5.80;2.00;;;;;;;34.30;37.13;100745.91;4970116;28;20049;-71
2021/08/21 06:46:11;;;;;;;7.10;2.10;;;;;;;34.52;37.16;100750.47;4971974;28;20054;-71
2021/08/21 06:48:39;;;;;;;7.45;2.15;;;;;;;34.38;37.57;100740.66;4972341;28;20446;-71
2021/08/21 06:51:07;;;;;;;12.32;2.03;;;;;;;34.44;37.68;100753.84;4971370;28;20517;-70
2021/08/21 06:53:35;;;;;;;6.97;2.28;;;;;;;34.63;37.28;100754.03;4971594;28;20125;-70
2021/08/21 06:56:04;;;;;;;3.75;1.75;;;;;;;34.81;37.21;100742.50;4972675;28;20038;-70
2021/08/21 06:58:32;;;;;;;7.05;1.98;;;;;;;34.93;37.22;100747.81;4971850;28;20130;-70
2021/08/21 07:01:00;;;;;;;8.32;1.83;;;;;;;34.83;37.15;100757.84;4971234;28;20058;-70
2021/08/21 07:03:27;;;;;;;8.48;2.15;;;;;;;34.95;36.76;100761.41;4969419;28;20053;-69
2021/08/21 07:05:54;;;;;;;4.95;2.05;;;;;;;34.72;36.88;100768.88;4970862;28;20039;-71
2021/08/21 07:08:21;;;;;;;7.85;2.70;;;;;;;34.76;36.70;100765.75;4971607;28;20069;-70
2021/08/21 07:10:49;;;;;;;6.32;2.13;;;;;;;34.85;36.70;100765.97;4966323;28;20039;-70
2021/08/21 07:13:18;;;;;;;6.63;2.38;;;;;;;34.98;36.63;100756.53;4969964;28;20051;-70
2021/08/21 07:15:46;;;;;;;6.13;1.45;;;;;;;35.14;36.19;100765.16;4978718;28;20479;-70
2021/08/21 07:18:14;;;;;;;4.15;1.85;;;;;;;35.04;36.22;100760.63;4969288;28;20443;-71
2021/08/21 07:20:41;;;;;;;7.65;2.53;;;;;;;35.17;36.20;100758.56;4967049;28;20045;-72
2021/08/21 07:23:08;;;;;;;5.50;2.08;;;;;;;35.31;35.59;100773.84;4969679;28;20035;-70
2021/08/21 07:25:36;;;;;;;7.45;2.13;;;;;;;35.34;34.96;100760.72;4971300;28;20046;-70
2021/08/21 07:28:04;;;;;;;7.10;1.60;;;;;;;35.27;34.43;100762.25;4970812;28;20047;-71
2021/08/21 07:30:33;;;;;;;6.55;1.98;;;;;;;35.21;33.73;100773.78;4970357;28;20042;-71
2021/08/21 07:33:00;;;;;;;8.32;1.83;;;;;;;35.20;33.96;100758.25;4967082;28;20038;-68
2021/08/21 07:35:27;;;;;;;6.95;1.88;;;;;;;35.03;34.14;100768.00;4969049;28;20083;-69
2021/08/21 07:37:55;;;;;;;2.83;1.55;;;;;;;35.28;34.24;100760.38;4969803;28;20569;-71
2021/08/21 07:40:23;;;;;;;5.13;1.63;;;;;;;35.26;34.21;100778.84;4969627;28;20043;-70
2021/08/21 07:42:50;;;;;;;8.02;2.08;;;;;;;35.28;34.19;100779.59;4971351;28;20061;-70
2021/08/21 07:45:18;;;;;;;4.05;1.60;;;;;;;35.40;34.18;100773.03;4970699;28;20062;-70
2021/08/21 07:47:49;;;;;;;8.15;2.05;;;;;;;35.65;34.05;100771.72;4971991;28;20129;-70
2021/08/21 07:50:17;;;;;;;5.80;1.92;;;;;;;35.81;34.16;100783.13;4988499;28;20510;-70
2021/08/21 07:52:46;;;;;;;6.13;1.75;;;;;;;35.96;33.97;100776.25;4989065;28;20061;-70
2021/08/21 07:55:13;;;;;;;8.73;2.08;;;;;;;36.08;33.95;100780.63;4979090;28;20058;-71
2021/08/21 07:57:40;;;;;;;6.28;1.80;;;;;;;36.11;33.69;100776.72;4970214;28;20039;-71
2021/08/21 08:00:09;;;;;;;6.95;2.33;;;;;;;36.00;33.62;100787.81;4971308;28;20041;-70
2021/08/21 08:02:36;;;;;;;4.93;1.98;;;;;;;35.85;34.13;100790.06;4972054;28;20039;-70
2021/08/21 08:05:06;;;;;;;5.68;2.28;;;;;;;36.09;34.05;100798.88;4970831;28;20043;-70
2021/08/21 08:07:33;;;;;;;5.20;1.90;;;;;;;36.12;33.98;100790.31;4971872;28;20054;-71
2021/08/21 08:10:01;;;;;;;5.90;1.95;;;;;;;36.11;34.01;100785.81;4971314;28;20042;-68
2021/08/21 08:12:28;;;;;;;6.93;1.80;;;;;;;36.16;34.11;100797.31;4972313;28;20130;-70
2021/08/21 08:14:55;;;;;;;5.00;1.83;;;;;;;36.15;34.12;100780.94;4971169;28;20052;-70
2021/08/21 08:17:24;;;;;;;5.75;2.10;;;;;;;36.19;34.34;100791.53;4971453;28;20054;-71
2021/08/21 08:19:51;;;;;;;4.82;1.60;;;;;;;36.39;33.96;100803.47;4970551;28;20515;-71
2021/08/21 08:22:20;;;;;;;7.32;2.45;;;;;;;36.51;33.53;100794.06;4970905;28;20062;-71
2021/08/21 08:24:48;;;;;;;4.45;1.77;;;;;;;36.55;33.51;100795.56;4971128;28;20129;-70
2021/08/21 08:27:18;;;;;;;6.20;1.88;;;;;;;36.67;33.55;100793.56;4971724;28;20043;-70
2021/08/21 08:29:45;;;;;;;5.57;1.75;;;;;;;36.80;33.10;100796.91;4970965;28;20047;-71
2021/08/21 08:32:12;;;;;;;8.18;1.90;;;;;;;36.85;33.16;100788.19;4971955;28;20043;-71
2021/08/21 08:34:40;;;;;;;5.90;1.75;;;;;;;36.84;33.13;100803.84;4970943;28;20043;-71
2021/08/21 08:37:10;;;;;;;4.45;1.73;;;;;;;36.88;33.04;100799.81;4971229;28;20070;-71
2021/08/21 08:39:40;;;;;;;5.47;1.63;;;;;;;36.87;33.56;100800.81;4971471;28;20062;-70
2021/08/21 08:42:08;;;;;;;6.10;1.98;;;;;;;36.92;32.91;100806.75;4972490;28;20563;-70
2021/08/21 08:44:39;;;;;;;6.25;1.85;;;;;;;37.08;32.34;100818.06;4973787;28;20518;-70
2021/08/21 08:47:07;;;;;;;4.68;1.63;;;;;;;37.00;32.51;100795.91;4974727;28;20050;-70
2021/08/21 08:49:36;;;;;;;8.80;2.22;;;;;;;36.82;32.42;100791.25;4974590;28;20038;-70
2021/08/21 08:52:06;;;;;;;4.38;1.52;;;;;;;36.79;32.72;100803.41;4975025;28;20047;-69
2021/08/21 08:54:33;;;;;;;5.95;1.90;;;;;;;36.84;32.69;100797.47;4975185;28;20057;-70
2021/08/21 08:57:03;;;;;;;7.90;2.00;;;;;;;37.00;32.14;100786.75;4975224;28;20398;-69
2021/08/21 08:59:31;;;;;;;5.20;2.03;;;;;;;36.82;31.97;100794.88;4974833;28;20050;-70
2021/08/21 09:01:58;;;;;;;5.63;1.48;;;;;;;36.75;32.18;100781.84;4957796;28;20057;-71
2021/08/21 09:04:26;;;;;;;8.73;1.92;;;;;;;36.76;31.89;100783.59;4974885;28;20079;-70
2021/08/21 09:06:55;;;;;;;7.55;1.77;;;;;;;36.67;31.73;100797.19;4975320;28;20483;-70
2021/08/21 09:09:24;;;;;;;8.80;2.35;;;;;;;36.67;31.36;100780.66;4974367;28;20122;-70
2021/08/21 09:11:53;;;;;;;6.47;1.90;;;;;;;36.69;31.10;100789.63;4974303;28;20525;-71
2021/08/21 09:14:25;;;;;;;4.78;1.88;;;;;;;36.75;29.47;100787.34;4975024;28;20058;-70
2021/08/21 09:16:53;;;;;;;9.88;1.90;;;;;;;36.74;29.42;100791.97;4974963;28;20045;-70
2021/08/21 09:19:26;;;;;;;11.43;2.25;;;;;;;36.74;29.78;100783.72;4973953;28;20055;-70
2021/08/21 09:22:01;;;;;;;10.17;2.40;;;;;;;36.67;30.67;100777.91;4974783;28;20059;-72
2021/08/21 09:24:28;;;;;;;10.10;2.50;;;;;;;36.56;31.30;100775.25;4974947;28;20125;-70
2021/08/21 09:26:56;;;;;;;5.35;1.92;;;;;;;36.43;31.65;100782.91;4974659;28;20047;-71
2021/08/21 09:29:28;;;;;;;7.80;2.47;;;;;;;36.44;32.13;100784.66;4974375;28;20043;-70
2021/08/21 09:32:07;;;;;;;6.82;2.50;;;;;;;36.27;32.17;100777.09;4974392;28;20070;-70
2021/08/21 09:34:35;;;;;;;9.25;2.63;;;;;;;36.16;31.89;100775.31;4973462;28;20047;-71
2021/08/21 09:37:03;;;;;;;6.40;2.40;;;;;;;36.02;31.85;100794.94;4974510;28;20065;-70
2021/08/21 09:39:36;;;;;;;9.45;2.17;;;;;;;36.00;32.22;100783.19;4974271;28;20034;-70
2021/08/21 09:42:05;;;;;;;9.23;2.78;;;;;;;35.98;32.13;100782.44;4973775;28;20050;-70
2021/08/21 09:44:36;;;;;;;9.27;2.20;;;;;;;35.97;32.18;100779.88;4973720;28;20103;-69
2021/08/21 09:47:14;;;;;;;6.47;1.83;;;;;;;35.69;32.54;100781.44;4974126;28;20426;-70
2021/08/21 09:49:44;;;;;;;9.48;2.55;;;;;;;35.56;33.02;100789.91;4973845;28;20048;-70
2021/08/21 09:52:14;;;;;;;9.43;2.20;;;;;;;35.47;33.29;100779.72;4974067;28;20051;-70
2021/08/21 09:54:45;;;;;;;7.00;2.20;;;;;;;35.44;33.54;100783.63;4971920;28;20038;-70
2021/08/21 09:57:14;;;;;;;12.07;2.85;;;;;;;35.53;32.93;100779.19;4973916;28;20039;-71
2021/08/21 09:59:44;;;;;;;8.57;2.45;;;;;;;35.35;33.16;100781.69;4973940;28;20085;-70
2021/08/21 10:02:13;;;;;;;8.57;2.45;;;;;;;35.12;33.05;100764.41;4972926;28;20052;-70
2021/08/21 10:04:44;;;;;;;8.23;2.30;;;;;;;35.08;33.05;100764.81;4973898;28;20427;-70
2021/08/21 10:07:15;;;;;;;18.75;3.45;;;;;;;35.04;32.43;100769.72;4973369;28;20053;-70
2021/08/21 10:09:43;;;;;;;15.00;3.00;;;;;;;34.96;31.85;100785.13;4973818;28;20069;-70
2021/08/21 10:12:12;;;;;;;9.20;2.30;;;;;;;34.82;31.82;100780.81;4974036;28;20043;-70
2021/08/21 10:14:40;;;;;;;11.95;2.55;;;;;;;34.90;32.07;100777.41;4972529;28;20051;-70
2021/08/21 10:17:10;;;;;;;8.25;2.00;;;;;;;35.04;32.59;100777.97;4973877;28;20403;-70
2021/08/21 10:19:38;;;;;;;39.10;6.18;;;;;;;35.15;32.49;100769.66;4973046;28;20495;-70
2021/08/21 10:22:08;;;;;;;14.93;3.05;;;;;;;35.10;32.15;100760.09;4972318;28;20434;-70
2021/08/21 10:24:37;;;;;;;6.85;2.20;;;;;;;35.04;32.38;100775.22;4972983;28;20042;-69
2021/08/21 10:27:11;;;;;;;21.25;3.33;;;;;;;35.11;32.38;100764.56;4973685;28;20030;-69
2021/08/21 10:29:38;;;;;;;7.60;2.45;;;;;;;35.08;32.67;100771.19;4973003;28;20066;-70
2021/08/21 10:32:27;;;;;;;6.00;2.00;;;;;;;34.93;33.07;100774.38;4973048;28;20054;-70
2021/08/21 10:34:57;;;;;;;9.98;2.17;;;;;;;34.81;33.02;100783.66;4973065;28;20038;-70
2021/08/21 10:37:35;;;;;;;8.60;2.00;;;;;;;34.88;33.17;100782.16;4972551;28;20050;-69
2021/08/21 10:40:47;;;;;;;7.82;2.20;;;;;;;34.96;33.44;100769.53;4972475;28;20530;-70
2021/08/21 10:43:15;;;;;;;10.05;2.30;;;;;;;34.72;33.59;100758.75;4973060;28;20057;-70
2021/08/21 10:45:47;;;;;;;9.70;2.08;;;;;;;34.72;33.83;100756.00;4973021;28;20112;-70
2021/08/21 10:48:36;;;;;;;11.20;2.78;;;;;;;34.71;34.32;100770.75;4973168;28;20407;-69
2021/08/21 10:51:05;;;;;;;8.38;2.17;;;;;;;34.73;34.43;100782.44;4971544;28;20038;-69
2021/08/21 10:53:35;;;;;;;9.93;2.28;;;;;;;34.81;34.73;100769.94;4973161;28;20486;-69
2021/08/21 10:56:05;;;;;;;23.27;3.45;;;;;;;34.84;34.32;100756.84;4972647;28;20039;-69
2021/08/21 10:58:33;;;;;;;24.70;3.42;;;;;;;34.99;34.17;100787.56;4972464;28;20594;-69
2021/08/21 11:01:03;;;;;;;24.48;4.55;;;;;;;35.08;33.71;100762.09;4973041;28;20126;-70
2021/08/21 11:03:48;;;;;;;10.02;2.65;;;;;;;35.17;33.46;100780.50;4973125;28;20042;-69
2021/08/21 11:06:35;;;;;;;7.93;2.33;;;;;;;35.35;32.28;100776.19;4970295;28;20060;-69
2021/08/21 11:09:25;;;;;;;8.93;2.00;;;;;;;35.34;31.95;100784.56;4971597;28;20478;-68
2021/08/21 11:11:54;;;;;;;6.60;1.90;;;;;;;35.43;31.67;100783.75;4971332;28;20109;-69
2021/08/21 11:14:33;;;;;;;9.23;2.33;;;;;;;35.60;31.27;100765.75;4972593;28;20051;-69
2021/08/21 11:17:02;;;;;;;15.52;2.33;;;;;;;35.74;31.11;100787.41;4972749;28;20403;-69
2021/08/21 11:19:35;;;;;;;12.18;1.95;;;;;;;35.80;30.85;100784.13;4972148;28;20038;-69
2021/08/21 11:22:31;;;;;;;7.57;2.30;;;;;;;35.90;30.55;100777.69;4972254;28;20578;-69
2021/08/21 11:25:07;;;;;;;7.53;2.28;;;;;;;36.07;31.07;100795.38;4958133;28;20101;-70
2021/08/21 11:27:42;;;;;;;10.00;2.70;;;;;;;36.22;30.82;100785.78;4971594;28;20047;-69
2021/08/21 11:30:27;;;;;;;11.70;2.58;;;;;;;36.05;31.15;100771.78;4971445;28;20089;-70
2021/08/21 11:32:58;;;;;;;6.43;1.92;;;;;;;36.03;30.93;100785.69;4971650;28;20085;-71